sensor_id;sensor_type;location;lat;lon;timestamp;pressure;altitude;pressure_sealevel;temperature;humidity
59043;BME280;44826;51.596;5.624;2023-01-29T00:00:05;102998.31;;;-1.59;80.92
59043;BME280;44826;51.596;5.624;2023-01-29T00:02:35;102997.63;;;-1.56;80.43
59043;BME280;44826;51.596;5.624;2023-01-29T00:05:00;102987.59;;;-1.53;80.90
59043;BME280;44826;51.596;5.624;2023-01-29T00:07:26;102980.91;;;-1.51;80.86
59043;BME280;44826;51.596;5.624;2023-01-29T00:09:51;102983.63;;;-1.48;80.94
59043;BME280;44826;51.596;5.624;2023-01-29T00:12:16;102979.59;;;-1.44;80.71
59043;BME280;44826;51.596;5.624;2023-01-29T00:14:42;102970.34;;;-1.42;81.07
59043;BME280;44826;51.596;5.624;2023-01-29T00:17:07;102971.44;;;-1.39;79.92
59043;BME280;44826;51.596;5.624;2023-01-29T00:19:32;102977.41;;;-1.38;80.92
59043;BME280;44826;51.596;5.624;2023-01-29T00:21:58;102968.94;;;-1.37;80.04
59043;BME280;44826;51.596;5.624;2023-01-29T00:24:23;102963.06;;;-1.36;80.80
59043;BME280;44826;51.596;5.624;2023-01-29T00:26:48;102961.28;;;-1.37;80.73
59043;BME280;44826;51.596;5.624;2023-01-29T00:29:14;102968.16;;;-1.36;80.43
59043;BME280;44826;51.596;5.624;2023-01-29T00:31:43;102961.38;;;-1.35;80.92
59043;BME280;44826;51.596;5.624;2023-01-29T00:34:08;102961.38;;;-1.35;80.47
59043;BME280;44826;51.596;5.624;2023-01-29T00:36:34;102963.13;;;-1.34;79.87
59043;BME280;44826;51.596;5.624;2023-01-29T00:39:00;102958.03;;;-1.34;80.74
59043;BME280;44826;51.596;5.624;2023-01-29T00:41:31;102951.16;;;-1.35;80.26
59043;BME280;44826;51.596;5.624;2023-01-29T00:44:15;102948.53;;;-1.37;80.57
59043;BME280;44826;51.596;5.624;2023-01-29T00:47:00;102948.28;;;-1.42;80.37
59043;BME280;44826;51.596;5.624;2023-01-29T00:49:25;102936.09;;;-1.46;80.28
59043;BME280;44826;51.596;5.624;2023-01-29T00:51:51;102927.28;;;-1.51;79.83
59043;BME280;44826;51.596;5.624;2023-01-29T00:54:35;102927.94;;;-1.55;80.10
59043;BME280;44826;51.596;5.624;2023-01-29T00:57:01;102927.56;;;-1.61;79.99
59043;BME280;44826;51.596;5.624;2023-01-29T00:59:27;102917.97;;;-1.65;79.88
59043;BME280;44826;51.596;5.624;2023-01-29T01:01:52;102917.69;;;-1.70;80.47
59043;BME280;44826;51.596;5.624;2023-01-29T01:04:36;102913.31;;;-1.73;80.22
59043;BME280;44826;51.596;5.624;2023-01-29T01:07:01;102911.34;;;-1.77;80.14
59043;BME280;44826;51.596;5.624;2023-01-29T01:09:26;102914.69;;;-1.78;80.46
59043;BME280;44826;51.596;5.624;2023-01-29T01:12:10;102917.06;;;-1.81;80.01
59043;BME280;44826;51.596;5.624;2023-01-29T01:14:35;102917.00;;;-1.83;80.20
59043;BME280;44826;51.596;5.624;2023-01-29T01:17:01;102910.81;;;-1.86;80.92
59043;BME280;44826;51.596;5.624;2023-01-29T01:19:26;102920.84;;;-1.89;80.41
59043;BME280;44826;51.596;5.624;2023-01-29T01:21:51;102921.53;;;-1.92;80.71
59043;BME280;44826;51.596;5.624;2023-01-29T01:24:17;102917.31;;;-1.91;81.01
59043;BME280;44826;51.596;5.624;2023-01-29T01:26:42;102919.09;;;-1.90;80.78
59043;BME280;44826;51.596;5.624;2023-01-29T01:29:07;102921.63;;;-1.90;81.16
59043;BME280;44826;51.596;5.624;2023-01-29T01:31:33;102921.63;;;-1.90;80.66
59043;BME280;44826;51.596;5.624;2023-01-29T01:33:58;102925.94;;;-1.89;80.57
59043;BME280;44826;51.596;5.624;2023-01-29T01:36:23;102915.75;;;-1.89;80.70
59043;BME280;44826;51.596;5.624;2023-01-29T01:38:49;102922.63;;;-1.88;81.31
59043;BME280;44826;51.596;5.624;2023-01-29T01:41:17;102924.44;;;-1.86;80.60
59043;BME280;44826;51.596;5.624;2023-01-29T01:43:47;102927.97;;;-1.84;80.85
59043;BME280;44826;51.596;5.624;2023-01-29T01:46:13;102920.50;;;-1.80;81.67
59043;BME280;44826;51.596;5.624;2023-01-29T01:48:38;102916.28;;;-1.80;81.52
59043;BME280;44826;51.596;5.624;2023-01-29T01:51:04;102918.03;;;-1.79;81.01
59043;BME280;44826;51.596;5.624;2023-01-29T01:53:56;102928.25;;;-1.79;80.68
59043;BME280;44826;51.596;5.624;2023-01-29T01:56:28;102925.69;;;-1.79;80.17
59043;BME280;44826;51.596;5.624;2023-01-29T01:59:03;102921.38;;;-1.80;80.10
59043;BME280;44826;51.596;5.624;2023-01-29T02:01:29;102925.50;;;-1.82;80.44
59043;BME280;44826;51.596;5.624;2023-01-29T02:04:00;102928.06;;;-1.82;80.76
59043;BME280;44826;51.596;5.624;2023-01-29T02:06:45;102933.16;;;-1.82;80.59
59043;BME280;44826;51.596;5.624;2023-01-29T02:09:51;102931.59;;;-1.80;80.01
59043;BME280;44826;51.596;5.624;2023-01-29T02:12:17;102931.59;;;-1.80;81.30
59043;BME280;44826;51.596;5.624;2023-01-29T02:14:43;102935.19;;;-1.76;80.25
59043;BME280;44826;51.596;5.624;2023-01-29T02:17:11;102940.47;;;-1.73;80.66
59043;BME280;44826;51.596;5.624;2023-01-29T02:19:52;102933.88;;;-1.70;80.59
59043;BME280;44826;51.596;5.624;2023-01-29T02:27:57;102941.97;;;-1.62;80.80
59043;BME280;44826;51.596;5.624;2023-01-29T02:30:44;102941.31;;;-1.59;80.36
59043;BME280;44826;51.596;5.624;2023-01-29T02:33:25;102945.69;;;-1.57;81.19
59043;BME280;44826;51.596;5.624;2023-01-29T02:35:59;102943.25;;;-1.55;80.69
59043;BME280;44826;51.596;5.624;2023-01-29T02:38:48;102946.75;;;-1.53;80.69
59043;BME280;44826;51.596;5.624;2023-01-29T02:41:25;102930.63;;;-1.52;80.42
59043;BME280;44826;51.596;5.624;2023-01-29T02:43:58;102940.25;;;-1.48;80.73
59043;BME280;44826;51.596;5.624;2023-01-29T02:49:23;102943.94;;;-1.43;80.21
59043;BME280;44826;51.596;5.624;2023-01-29T02:52:08;102945.00;;;-1.39;80.15
59043;BME280;44826;51.596;5.624;2023-01-29T02:54:44;102935.69;;;-1.39;80.44
59043;BME280;44826;51.596;5.624;2023-01-29T02:57:16;102934.91;;;-1.38;80.81
59043;BME280;44826;51.596;5.624;2023-01-29T02:59:53;102927.22;;;-1.38;80.74
59043;BME280;44826;51.596;5.624;2023-01-29T03:02:33;102933.13;;;-1.39;80.01
59043;BME280;44826;51.596;5.624;2023-01-29T03:05:02;102933.03;;;-1.40;80.48
59043;BME280;44826;51.596;5.624;2023-01-29T03:07:34;102929.50;;;-1.42;80.70
59043;BME280;44826;51.596;5.624;2023-01-29T03:10:21;102932.16;;;-1.41;81.10
59043;BME280;44826;51.596;5.624;2023-01-29T03:12:54;102926.34;;;-1.38;80.79
59043;BME280;44826;51.596;5.624;2023-01-29T03:15:37;102928.28;;;-1.34;80.96
59043;BME280;44826;51.596;5.624;2023-01-29T03:18:10;102935.16;;;-1.33;80.73
59043;BME280;44826;51.596;5.624;2023-01-29T03:20:42;102938.03;;;-1.27;80.67
59043;BME280;44826;51.596;5.624;2023-01-29T03:23:21;102934.63;;;-1.27;80.28
59043;BME280;44826;51.596;5.624;2023-01-29T03:25:53;102924.41;;;-1.27;80.52
59043;BME280;44826;51.596;5.624;2023-01-29T03:28:42;102923.69;;;-1.25;80.22
59043;BME280;44826;51.596;5.624;2023-01-29T03:31:28;102932.31;;;-1.23;80.44
59043;BME280;44826;51.596;5.624;2023-01-29T03:34:20;102927.22;;;-1.23;81.06
59043;BME280;44826;51.596;5.624;2023-01-29T03:37:00;102933.34;;;-1.19;81.20
59043;BME280;44826;51.596;5.624;2023-01-29T03:39:27;102925.69;;;-1.19;80.67
59043;BME280;44826;51.596;5.624;2023-01-29T03:47:21;102920.16;;;-1.12;80.81
59043;BME280;44826;51.596;5.624;2023-01-29T03:49:57;102909.94;;;-1.12;81.00
59043;BME280;44826;51.596;5.624;2023-01-29T03:52:34;102908.19;;;-1.13;80.78
59043;BME280;44826;51.596;5.624;2023-01-29T03:55:22;102904.81;;;-1.12;81.28
59043;BME280;44826;51.596;5.624;2023-01-29T03:58:03;102898.13;;;-1.10;80.93
59043;BME280;44826;51.596;5.624;2023-01-29T04:00:37;102903.25;;;-1.10;81.60
59043;BME280;44826;51.596;5.624;2023-01-29T04:03:15;102905.88;;;-1.08;80.79
59043;BME280;44826;51.596;5.624;2023-01-29T04:05:58;102893.19;;;-1.07;80.63
59043;BME280;44826;51.596;5.624;2023-01-29T04:08:32;102888.09;;;-1.07;80.72
59043;BME280;44826;51.596;5.624;2023-01-29T04:11:01;102884.66;;;-1.07;80.77
59043;BME280;44826;51.596;5.624;2023-01-29T04:13:29;102887.91;;;-1.10;80.38
59043;BME280;44826;51.596;5.624;2023-01-29T04:15:59;102887.91;;;-1.10;81.20
59043;BME280;44826;51.596;5.624;2023-01-29T04:18:25;102882.81;;;-1.10;81.19
59043;BME280;44826;51.596;5.624;2023-01-29T04:20:51;102883.00;;;-1.07;81.08
59043;BME280;44826;51.596;5.624;2023-01-29T04:23:25;102880.31;;;-1.08;81.64
59043;BME280;44826;51.596;5.624;2023-01-29T04:31:27;102890.66;;;-1.07;81.12
59043;BME280;44826;51.596;5.624;2023-01-29T04:34:05;102888.16;;;-1.05;81.34
59043;BME280;44826;51.596;5.624;2023-01-29T04:36:43;102888.28;;;-1.03;81.33
59043;BME280;44826;51.596;5.624;2023-01-29T04:39:18;102878.19;;;-1.00;81.53
59043;BME280;44826;51.596;5.624;2023-01-29T04:41:51;102860.41;;;-0.99;80.67
59043;BME280;44826;51.596;5.624;2023-01-29T04:47:07;102849.13;;;-1.02;80.86
59043;BME280;44826;51.596;5.624;2023-01-29T04:52:31;102840.53;;;-1.04;81.47
59043;BME280;44826;51.596;5.624;2023-01-29T04:55:08;102834.53;;;-1.05;81.31
59043;BME280;44826;51.596;5.624;2023-01-29T04:58:06;102828.53;;;-1.05;81.48
59043;BME280;44826;51.596;5.624;2023-01-29T05:00:41;102814.81;;;-1.08;81.42
59043;BME280;44826;51.596;5.624;2023-01-29T05:03:07;102813.91;;;-1.08;81.77
59043;BME280;44826;51.596;5.624;2023-01-29T05:05:34;102814.81;;;-1.08;81.99
59043;BME280;44826;51.596;5.624;2023-01-29T05:08:01;102813.13;;;-1.07;81.81
59043;BME280;44826;51.596;5.624;2023-01-29T05:10:28;102820.00;;;-1.06;81.77
59043;BME280;44826;51.596;5.624;2023-01-29T05:12:59;102828.53;;;-1.05;81.59
59043;BME280;44826;51.596;5.624;2023-01-29T05:15:30;102831.34;;;-1.01;82.18
59043;BME280;44826;51.596;5.624;2023-01-29T05:17:57;102828.16;;;-0.97;81.42
59043;BME280;44826;51.596;5.624;2023-01-29T05:20:29;102820.75;;;-0.92;81.23
59043;BME280;44826;51.596;5.624;2023-01-29T05:22:55;102817.56;;;-0.88;81.26
59043;BME280;44826;51.596;5.624;2023-01-29T05:25:23;102810.94;;;-0.84;81.73
59043;BME280;44826;51.596;5.624;2023-01-29T05:27:50;102805.88;;;-0.83;81.24
59043;BME280;44826;51.596;5.624;2023-01-29T05:30:36;102800.94;;;-0.80;81.86
59043;BME280;44826;51.596;5.624;2023-01-29T05:33:02;102810.47;;;-0.77;81.05
59043;BME280;44826;51.596;5.624;2023-01-29T05:35:28;102806.41;;;-0.73;81.57
59043;BME280;44826;51.596;5.624;2023-01-29T05:37:55;102811.50;;;-0.73;81.24
59043;BME280;44826;51.596;5.624;2023-01-29T05:40:21;102814.13;;;-0.72;81.05
59043;BME280;44826;51.596;5.624;2023-01-29T05:42:46;102813.44;;;-0.69;81.01
59043;BME280;44826;51.596;5.624;2023-01-29T05:45:12;102820.28;;;-0.68;81.15
59043;BME280;44826;51.596;5.624;2023-01-29T05:47:37;102824.75;;;-0.64;81.07
59043;BME280;44826;51.596;5.624;2023-01-29T05:50:03;102815.50;;;-0.62;81.54
59043;BME280;44826;51.596;5.624;2023-01-29T05:52:28;102813.91;;;-0.60;81.76
59043;BME280;44826;51.596;5.624;2023-01-29T05:54:53;102822.53;;;-0.58;81.50
59043;BME280;44826;51.596;5.624;2023-01-29T05:57:18;102817.50;;;-0.56;81.55
59043;BME280;44826;51.596;5.624;2023-01-29T05:59:44;102822.75;;;-0.53;81.50
59043;BME280;44826;51.596;5.624;2023-01-29T06:02:09;102821.25;;;-0.50;81.71
59043;BME280;44826;51.596;5.624;2023-01-29T06:04:34;102822.13;;;-0.49;80.67
59043;BME280;44826;51.596;5.624;2023-01-29T06:06:59;102827.31;;;-0.48;81.42
59043;BME280;44826;51.596;5.624;2023-01-29T06:09:27;102831.63;;;-0.47;81.50
59043;BME280;44826;51.596;5.624;2023-01-29T06:11:52;102835.09;;;-0.46;81.25
59043;BME280;44826;51.596;5.624;2023-01-29T06:14:17;102829.19;;;-0.45;80.94
59043;BME280;44826;51.596;5.624;2023-01-29T06:16:43;102837.81;;;-0.43;81.12
59043;BME280;44826;51.596;5.624;2023-01-29T06:19:08;102857.53;;;-0.40;81.44
59043;BME280;44826;51.596;5.624;2023-01-29T06:21:33;102847.31;;;-0.40;81.28
59043;BME280;44826;51.596;5.624;2023-01-29T06:23:59;102847.47;;;-0.37;81.02
59043;BME280;44826;51.596;5.624;2023-01-29T06:26:24;102845.88;;;-0.35;81.03
59043;BME280;44826;51.596;5.624;2023-01-29T06:28:50;102829.69;;;-0.34;81.26
59043;BME280;44826;51.596;5.624;2023-01-29T06:31:15;102824.69;;;-0.33;81.34
59043;BME280;44826;51.596;5.624;2023-01-29T06:33:41;102815.31;;;-0.32;81.27
59043;BME280;44826;51.596;5.624;2023-01-29T06:36:06;102801.56;;;-0.34;81.64
59043;BME280;44826;51.596;5.624;2023-01-29T06:38:32;102798.09;;;-0.36;81.41
59043;BME280;44826;51.596;5.624;2023-01-29T06:40:57;102802.31;;;-0.37;81.47
59043;BME280;44826;51.596;5.624;2023-01-29T06:43:23;102808.31;;;-0.36;81.85
59043;BME280;44826;51.596;5.624;2023-01-29T06:45:52;102812.47;;;-0.38;81.77
59043;BME280;44826;51.596;5.624;2023-01-29T06:48:18;102809.00;;;-0.39;81.78
59043;BME280;44826;51.596;5.624;2023-01-29T06:50:44;102803.03;;;-0.39;82.16
59043;BME280;44826;51.596;5.624;2023-01-29T06:53:10;102801.44;;;-0.37;81.74
59043;BME280;44826;51.596;5.624;2023-01-29T06:55:35;102807.34;;;-0.38;82.11
59043;BME280;44826;51.596;5.624;2023-01-29T06:58:08;102801.44;;;-0.37;82.14
59043;BME280;44826;51.596;5.624;2023-01-29T07:00:34;102804.00;;;-0.37;82.03
59043;BME280;44826;51.596;5.624;2023-01-29T07:03:00;102798.88;;;-0.37;82.31
59043;BME280;44826;51.596;5.624;2023-01-29T07:05:25;102792.97;;;-0.36;81.99
59043;BME280;44826;51.596;5.624;2023-01-29T07:07:51;102794.72;;;-0.35;81.99
59043;BME280;44826;51.596;5.624;2023-01-29T07:10:16;102791.28;;;-0.36;81.79
59043;BME280;44826;51.596;5.624;2023-01-29T07:12:41;102805.81;;;-0.35;82.27
59043;BME280;44826;51.596;5.624;2023-01-29T07:15:07;102802.41;;;-0.35;81.93
59043;BME280;44826;51.596;5.624;2023-01-29T07:17:32;102812.63;;;-0.35;82.72
59043;BME280;44826;51.596;5.624;2023-01-29T07:19:58;102808.31;;;-0.36;82.38
59043;BME280;44826;51.596;5.624;2023-01-29T07:22:23;102814.34;;;-0.34;81.95
59043;BME280;44826;51.596;5.624;2023-01-29T07:24:48;102810.19;;;-0.32;82.45
59043;BME280;44826;51.596;5.624;2023-01-29T07:27:14;102807.66;;;-0.32;81.97
59043;BME280;44826;51.596;5.624;2023-01-29T07:29:39;102807.66;;;-0.32;82.38
59043;BME280;44826;51.596;5.624;2023-01-29T07:32:04;102806.84;;;-0.31;82.42
59043;BME280;44826;51.596;5.624;2023-01-29T07:34:30;102796.72;;;-0.29;82.37
59043;BME280;44826;51.596;5.624;2023-01-29T07:36:55;102795.00;;;-0.29;82.34
59043;BME280;44826;51.596;5.624;2023-01-29T07:39:21;102791.66;;;-0.28;82.23
59043;BME280;44826;51.596;5.624;2023-01-29T07:41:47;102792.47;;;-0.29;82.45
59043;BME280;44826;51.596;5.624;2023-01-29T07:44:12;102789.91;;;-0.29;82.21
59043;BME280;44826;51.596;5.624;2023-01-29T07:46:37;102793.25;;;-0.30;82.72
59043;BME280;44826;51.596;5.624;2023-01-29T07:49:02;102795.00;;;-0.29;82.68
59043;BME280;44826;51.596;5.624;2023-01-29T07:51:28;102808.75;;;-0.27;82.20
59043;BME280;44826;51.596;5.624;2023-01-29T07:53:53;102807.00;;;-0.28;82.34
59043;BME280;44826;51.596;5.624;2023-01-29T07:56:18;102795.19;;;-0.26;82.59
59043;BME280;44826;51.596;5.624;2023-01-29T07:58:44;102791.81;;;-0.25;82.59
59043;BME280;44826;51.596;5.624;2023-01-29T08:01:09;102795.19;;;-0.26;82.60
59043;BME280;44826;51.596;5.624;2023-01-29T08:03:35;102791.03;;;-0.24;82.30
59043;BME280;44826;51.596;5.624;2023-01-29T08:06:02;102780.84;;;-0.22;82.14
59043;BME280;44826;51.596;5.624;2023-01-29T08:08:27;102780.94;;;-0.21;82.36
59043;BME280;44826;51.596;5.624;2023-01-29T08:10:53;102786.06;;;-0.21;82.53
59043;BME280;44826;51.596;5.624;2023-01-29T08:13:18;102788.63;;;-0.21;82.61
59043;BME280;44826;51.596;5.624;2023-01-29T08:15:44;102787.03;;;-0.19;82.26
59043;BME280;44826;51.596;5.624;2023-01-29T08:18:10;102801.63;;;-0.16;81.67
59043;BME280;44826;51.596;5.624;2023-01-29T08:20:35;102786.34;;;-0.14;82.09
59043;BME280;44826;51.596;5.624;2023-01-29T08:23:03;102776.91;;;-0.16;82.51
59043;BME280;44826;51.596;5.624;2023-01-29T08:25:29;102777.81;;;-0.15;82.06
59043;BME280;44826;51.596;5.624;2023-01-29T08:27:57;102771.00;;;-0.14;82.27
59043;BME280;44826;51.596;5.624;2023-01-29T08:30:25;102759.97;;;-0.13;82.53
59043;BME280;44826;51.596;5.624;2023-01-29T08:32:50;102753.09;;;-0.14;82.11
59043;BME280;44826;51.596;5.624;2023-01-29T08:35:16;102764.22;;;-0.14;82.35
59043;BME280;44826;51.596;5.624;2023-01-29T08:37:41;102749.75;;;-0.13;82.20
59043;BME280;44826;51.596;5.624;2023-01-29T08:40:07;102758.31;;;-0.13;82.71
59043;BME280;44826;51.596;5.624;2023-01-29T08:42:34;102758.38;;;-0.11;82.49
59043;BME280;44826;51.596;5.624;2023-01-29T08:45:00;102753.34;;;-0.10;81.77
59043;BME280;44826;51.596;5.624;2023-01-29T08:47:29;102746.53;;;-0.09;82.09
59043;BME280;44826;51.596;5.624;2023-01-29T08:49:54;102754.28;;;-0.08;82.39
59043;BME280;44826;51.596;5.624;2023-01-29T08:52:20;102761.25;;;-0.05;82.80
59043;BME280;44826;51.596;5.624;2023-01-29T08:54:45;102757.09;;;-0.03;82.67
59043;BME280;44826;51.596;5.624;2023-01-29T08:57:10;102754.69;;;0.00;82.55
59043;BME280;44826;51.596;5.624;2023-01-29T08:59:35;102752.13;;;0.00;82.22
59043;BME280;44826;51.596;5.624;2023-01-29T09:02:02;102753.84;;;0.01;82.33
59043;BME280;44826;51.596;5.624;2023-01-29T09:04:27;102750.63;;;0.05;82.12
59043;BME280;44826;51.596;5.624;2023-01-29T09:06:52;102742.16;;;0.06;82.15
59043;BME280;44826;51.596;5.624;2023-01-29T09:09:17;102734.59;;;0.08;81.78
59043;BME280;44826;51.596;5.624;2023-01-29T09:11:43;102729.47;;;0.08;82.00
59043;BME280;44826;51.596;5.624;2023-01-29T09:14:08;102738.97;;;0.10;82.21
59043;BME280;44826;51.596;5.624;2023-01-29T09:16:36;102742.47;;;0.12;81.92
59043;BME280;44826;51.596;5.624;2023-01-29T09:19:01;102735.75;;;0.14;81.51
59043;BME280;44826;51.596;5.624;2023-01-29T09:21:27;102733.25;;;0.16;82.03
59043;BME280;44826;51.596;5.624;2023-01-29T09:23:52;102727.38;;;0.19;81.34
59043;BME280;44826;51.596;5.624;2023-01-29T09:26:17;102726.69;;;0.21;82.14
59043;BME280;44826;51.596;5.624;2023-01-29T09:28:42;102732.81;;;0.25;81.38
59043;BME280;44826;51.596;5.624;2023-01-29T09:31:08;102722.72;;;0.28;81.70
59043;BME280;44826;51.596;5.624;2023-01-29T09:33:33;102733.91;;;0.30;81.38
59043;BME280;44826;51.596;5.624;2023-01-29T09:35:58;102728.00;;;0.31;81.49
59043;BME280;44826;51.596;5.624;2023-01-29T09:38:23;102738.38;;;0.34;80.99
59043;BME280;44826;51.596;5.624;2023-01-29T09:46:06;102738.66;;;0.40;80.70
59043;BME280;44826;51.596;5.624;2023-01-29T09:48:37;102736.19;;;0.42;80.60
59043;BME280;44826;51.596;5.624;2023-01-29T09:51:09;102727.75;;;0.44;81.14
59043;BME280;44826;51.596;5.624;2023-01-29T09:53:49;102732.13;;;0.47;80.92
59043;BME280;44826;51.596;5.624;2023-01-29T09:56:19;102737.41;;;0.50;80.74
59043;BME280;44826;51.596;5.624;2023-01-29T09:58:45;102724.75;;;0.53;80.33
59043;BME280;44826;51.596;5.624;2023-01-29T10:04:12;102727.50;;;0.58;80.66
59043;BME280;44826;51.596;5.624;2023-01-29T10:06:54;102728.53;;;0.62;80.66
59043;BME280;44826;51.596;5.624;2023-01-29T10:12:41;102733.94;;;0.68;80.47
59043;BME280;44826;51.596;5.624;2023-01-29T10:23:17;102732.97;;;0.84;79.80
59043;BME280;44826;51.596;5.624;2023-01-29T10:25:47;102722.78;;;0.85;79.27
59043;BME280;44826;51.596;5.624;2023-01-29T10:30:48;102729.84;;;0.91;79.03
59043;BME280;44826;51.596;5.624;2023-01-29T10:33:23;102722.31;;;0.94;78.67
59043;BME280;44826;51.596;5.624;2023-01-29T10:35:56;102725.72;;;0.95;78.86
59043;BME280;44826;51.596;5.624;2023-01-29T10:38:33;102725.06;;;0.99;78.27
59043;BME280;44826;51.596;5.624;2023-01-29T10:49:37;102722.84;;;1.06;78.16
59043;BME280;44826;51.596;5.624;2023-01-29T10:55:31;102716.25;;;1.12;78.21
59043;BME280;44826;51.596;5.624;2023-01-29T11:00:40;102706.25;;;1.18;77.08
59043;BME280;44826;51.596;5.624;2023-01-29T11:05:54;102690.25;;;1.24;77.32
59043;BME280;44826;51.596;5.624;2023-01-29T11:08:24;102681.00;;;1.27;76.99
59043;BME280;44826;51.596;5.624;2023-01-29T11:11:41;102675.25;;;1.33;77.65
59043;BME280;44826;51.596;5.624;2023-01-29T11:14:13;102670.31;;;1.38;77.71
59043;BME280;44826;51.596;5.624;2023-01-29T11:16:46;102667.16;;;1.43;76.83
59043;BME280;44826;51.596;5.624;2023-01-29T11:19:11;102659.50;;;1.45;76.59
59043;BME280;44826;51.596;5.624;2023-01-29T11:21:52;102647.75;;;1.50;76.44
59043;BME280;44826;51.596;5.624;2023-01-29T11:24:20;102645.25;;;1.51;76.12
59043;BME280;44826;51.596;5.624;2023-01-29T11:26:47;102649.63;;;1.54;76.40
59043;BME280;44826;51.596;5.624;2023-01-29T11:31:53;102640.56;;;1.62;76.05
59043;BME280;44826;51.596;5.624;2023-01-29T11:34:23;102644.13;;;1.66;75.93
59043;BME280;44826;51.596;5.624;2023-01-29T11:37:00;102632.31;;;1.70;75.78
59043;BME280;44826;51.596;5.624;2023-01-29T11:39:26;102624.72;;;1.73;75.86
59043;BME280;44826;51.596;5.624;2023-01-29T11:41:57;102612.81;;;1.75;75.69
59043;BME280;44826;51.596;5.624;2023-01-29T11:52:18;102596.16;;;1.86;75.06
59043;BME280;44826;51.596;5.624;2023-01-29T11:54:58;102594.50;;;1.88;75.53
59043;BME280;44826;51.596;5.624;2023-01-29T11:57:45;102577.44;;;1.89;75.28
59043;BME280;44826;51.596;5.624;2023-01-29T12:00:19;102568.91;;;1.90;74.92
59043;BME280;44826;51.596;5.624;2023-01-29T12:05:27;102564.66;;;1.90;74.55
59043;BME280;44826;51.596;5.624;2023-01-29T12:07:56;102557.84;;;1.91;74.47
59043;BME280;44826;51.596;5.624;2023-01-29T12:15:34;102551.88;;;1.92;74.12
59043;BME280;44826;51.596;5.624;2023-01-29T12:20:38;102555.44;;;1.95;73.91
59043;BME280;44826;51.596;5.624;2023-01-29T12:25:49;102543.41;;;1.94;74.23
59043;BME280;44826;51.596;5.624;2023-01-29T12:33:57;102528.13;;;1.97;74.33
59043;BME280;44826;51.596;5.624;2023-01-29T12:36:32;102523.00;;;1.97;74.16
59043;BME280;44826;51.596;5.624;2023-01-29T12:39:00;102514.38;;;1.95;74.11
59043;BME280;44826;51.596;5.624;2023-01-29T12:41:41;102513.59;;;1.98;74.03
59043;BME280;44826;51.596;5.624;2023-01-29T12:44:19;102516.97;;;1.97;73.90
59043;BME280;44826;51.596;5.624;2023-01-29T12:46:53;102505.03;;;1.97;73.71
59043;BME280;44826;51.596;5.624;2023-01-29T12:49:23;102492.19;;;1.97;73.72
59043;BME280;44826;51.596;5.624;2023-01-29T12:54:58;102491.50;;;2.02;74.22
59043;BME280;44826;51.596;5.624;2023-01-29T12:57:41;102477.84;;;2.03;73.93
59043;BME280;44826;51.596;5.624;2023-01-29T13:00:18;102478.66;;;2.02;73.54
59043;BME280;44826;51.596;5.624;2023-01-29T13:03:03;102481.28;;;2.03;73.54
59043;BME280;44826;51.596;5.624;2023-01-29T13:08:39;102475.38;;;2.06;73.70
59043;BME280;44826;51.596;5.624;2023-01-29T13:11:09;102466.84;;;2.07;73.93
59043;BME280;44826;51.596;5.624;2023-01-29T13:13:50;102472.91;;;2.09;74.05
59043;BME280;44826;51.596;5.624;2023-01-29T13:16:19;102470.34;;;2.09;73.98
59043;BME280;44826;51.596;5.624;2023-01-29T13:18:58;102461.00;;;2.11;74.38
59043;BME280;44826;51.596;5.624;2023-01-29T13:21:32;102449.13;;;2.13;74.13
59043;BME280;44826;51.596;5.624;2023-01-29T13:24:03;102451.78;;;2.16;73.96
59043;BME280;44826;51.596;5.624;2023-01-29T13:26:29;102450.03;;;2.15;74.34
59043;BME280;44826;51.596;5.624;2023-01-29T13:28:56;102447.59;;;2.18;74.22
59043;BME280;44826;51.596;5.624;2023-01-29T13:31:27;102444.25;;;2.21;73.96
59043;BME280;44826;51.596;5.624;2023-01-29T13:34:15;102440.91;;;2.23;74.15
59043;BME280;44826;51.596;5.624;2023-01-29T13:36:47;102428.06;;;2.23;74.09
59043;BME280;44826;51.596;5.624;2023-01-29T13:39:35;102438.44;;;2.26;74.35
59043;BME280;44826;51.596;5.624;2023-01-29T13:42:20;102426.41;;;2.25;74.41
59043;BME280;44826;51.596;5.624;2023-01-29T13:44:48;102422.16;;;2.26;74.36
59043;BME280;44826;51.596;5.624;2023-01-29T13:47:40;102421.28;;;2.25;74.29
59043;BME280;44826;51.596;5.624;2023-01-29T13:50:08;102424.66;;;2.24;74.49
59043;BME280;44826;51.596;5.624;2023-01-29T14:07:57;102414.31;;;2.21;74.65
59043;BME280;44826;51.596;5.624;2023-01-29T14:10:25;102413.44;;;2.21;74.62
59043;BME280;44826;51.596;5.624;2023-01-29T14:15:39;102404.78;;;2.19;74.73
59043;BME280;44826;51.596;5.624;2023-01-29T14:18:14;102409.06;;;2.18;74.75
59043;BME280;44826;51.596;5.624;2023-01-29T14:23:37;102375.63;;;2.17;75.03
59043;BME280;44826;51.596;5.624;2023-01-29T14:26:26;102378.25;;;2.18;74.99
59043;BME280;44826;51.596;5.624;2023-01-29T14:31:53;102375.72;;;2.20;74.85
59043;BME280;44826;51.596;5.624;2023-01-29T14:34:25;102369.75;;;2.19;74.68
59043;BME280;44826;51.596;5.624;2023-01-29T14:36:54;102379.22;;;2.22;74.89
59043;BME280;44826;51.596;5.624;2023-01-29T14:41:49;102368.09;;;2.21;74.96
59043;BME280;44826;51.596;5.624;2023-01-29T14:47:19;102368.13;;;2.23;74.82
59043;BME280;44826;51.596;5.624;2023-01-29T14:49:53;102366.38;;;2.22;74.75
59043;BME280;44826;51.596;5.624;2023-01-29T14:52:35;102367.34;;;2.25;75.14
59043;BME280;44826;51.596;5.624;2023-01-29T14:55:04;102369.94;;;2.25;75.08
59043;BME280;44826;51.596;5.624;2023-01-29T14:57:32;102352.78;;;2.24;74.95
59043;BME280;44826;51.596;5.624;2023-01-29T15:00:05;102356.22;;;2.25;75.37
59043;BME280;44826;51.596;5.624;2023-01-29T15:02:39;102351.13;;;2.26;75.02
59043;BME280;44826;51.596;5.624;2023-01-29T15:05:11;102351.94;;;2.25;75.69
59043;BME280;44826;51.596;5.624;2023-01-29T15:07:41;102352.72;;;2.23;76.12
59043;BME280;44826;51.596;5.624;2023-01-29T15:10:26;102355.31;;;2.23;75.91
59043;BME280;44826;51.596;5.624;2023-01-29T15:13:03;102351.03;;;2.23;75.50
59043;BME280;44826;51.596;5.624;2023-01-29T15:18:07;102347.56;;;2.21;75.81
59043;BME280;44826;51.596;5.624;2023-01-29T15:20:37;102349.19;;;2.19;75.91